sensor_id;sensor_type;location;lat;lon;timestamp;P1;P2;P0
26720;PMS1003;15950;51.112;6.966;2022-09-21T00:00:45;003;003;
26720;PMS1003;15950;51.112;6.966;2022-09-21T00:03:45;002;001;
26720;PMS1003;15950;51.112;6.966;2022-09-21T00:06:45;009;006;
26720;PMS1003;15950;51.112;6.966;2022-09-21T00:09:45;006;004;
26720;PMS1003;15950;51.112;6.966;2022-09-21T00:12:46;003;002;
26720;PMS1003;15950;51.112;6.966;2022-09-21T00:15:45;003;002;
26720;PMS1003;15950;51.112;6.966;2022-09-21T00:18:45;005;003;
26720;PMS1003;15950;51.112;6.966;2022-09-21T00:21:45;004;004;
26720;PMS1003;15950;51.112;6.966;2022-09-21T00:24:45;002;001;
26720;PMS1003;15950;51.112;6.966;2022-09-21T00:27:45;000;000;
26720;PMS1003;15950;51.112;6.966;2022-09-21T00:30:45;005;003;
26720;PMS1003;15950;51.112;6.966;2022-09-21T00:33:45;002;002;
26720;PMS1003;15950;51.112;6.966;2022-09-21T00:36:45;000;000;
26720;PMS1003;15950;51.112;6.966;2022-09-21T00:39:45;002;001;
26720;PMS1003;15950;51.112;6.966;2022-09-21T00:42:45;002;002;
26720;PMS1003;15950;51.112;6.966;2022-09-21T00:45:45;000;000;
26720;PMS1003;15950;51.112;6.966;2022-09-21T00:48:45;000;000;
26720;PMS1003;15950;51.112;6.966;2022-09-21T00:51:45;003;003;
26720;PMS1003;15950;51.112;6.966;2022-09-21T00:54:47;002;001;
26720;PMS1003;15950;51.112;6.966;2022-09-21T00:57:45;000;000;
26720;PMS1003;15950;51.112;6.966;2022-09-21T01:00:45;000;000;
26720;PMS1003;15950;51.112;6.966;2022-09-21T01:03:45;000;000;
26720;PMS1003;15950;51.112;6.966;2022-09-21T01:06:45;002;001;
26720;PMS1003;15950;51.112;6.966;2022-09-21T01:09:46;001;001;
26720;PMS1003;15950;51.112;6.966;2022-09-21T01:12:51;000;000;
26720;PMS1003;15950;51.112;6.966;2022-09-21T01:15:50;002;001;
26720;PMS1003;15950;51.112;6.966;2022-09-21T01:18:49;001;001;
26720;PMS1003;15950;51.112;6.966;2022-09-21T01:27:48;000;000;
26720;PMS1003;15950;51.112;6.966;2022-09-21T01:30:45;000;000;
26720;PMS1003;15950;51.112;6.966;2022-09-21T01:33:46;003;002;
26720;PMS1003;15950;51.112;6.966;2022-09-21T01:36:45;000;000;
26720;PMS1003;15950;51.112;6.966;2022-09-21T01:39:46;000;000;
26720;PMS1003;15950;51.112;6.966;2022-09-21T01:42:45;002;001;
26720;PMS1003;15950;51.112;6.966;2022-09-21T01:45:46;002;001;
26720;PMS1003;15950;51.112;6.966;2022-09-21T01:48:46;000;000;
26720;PMS1003;15950;51.112;6.966;2022-09-21T01:51:47;002;001;
26720;PMS1003;15950;51.112;6.966;2022-09-21T01:54:47;000;000;
26720;PMS1003;15950;51.112;6.966;2022-09-21T01:57:49;000;000;
26720;PMS1003;15950;51.112;6.966;2022-09-21T02:00:45;003;002;
26720;PMS1003;15950;51.112;6.966;2022-09-21T02:06:45;000;000;
26720;PMS1003;15950;51.112;6.966;2022-09-21T02:09:45;000;000;
26720;PMS1003;15950;51.112;6.966;2022-09-21T02:12:45;000;000;
26720;PMS1003;15950;51.112;6.966;2022-09-21T02:24:46;000;000;
26720;PMS1003;15950;51.112;6.966;2022-09-21T02:30:47;003;003;
26720;PMS1003;15950;51.112;6.966;2022-09-21T02:42:45;000;000;
26720;PMS1003;15950;51.112;6.966;2022-09-21T02:45:47;000;000;
26720;PMS1003;15950;51.112;6.966;2022-09-21T02:49:04;000;000;
26720;PMS1003;15950;51.112;6.966;2022-09-21T02:51:48;001;001;
26720;PMS1003;15950;51.112;6.966;2022-09-21T02:54:46;000;000;
26720;PMS1003;15950;51.112;6.966;2022-09-21T02:57:46;000;000;
26720;PMS1003;15950;51.112;6.966;2022-09-21T03:00:45;000;000;
26720;PMS1003;15950;51.112;6.966;2022-09-21T03:03:45;002;001;
26720;PMS1003;15950;51.112;6.966;2022-09-21T03:06:45;001;001;
26720;PMS1003;15950;51.112;6.966;2022-09-21T03:09:45;000;000;
26720;PMS1003;15950;51.112;6.966;2022-09-21T03:12:45;000;000;
26720;PMS1003;15950;51.112;6.966;2022-09-21T03:15:45;000;000;
26720;PMS1003;15950;51.112;6.966;2022-09-21T03:18:45;002;001;
26720;PMS1003;15950;51.112;6.966;2022-09-21T03:21:45;003;002;
26720;PMS1003;15950;51.112;6.966;2022-09-21T03:24:45;000;000;
26720;PMS1003;15950;51.112;6.966;2022-09-21T03:27:45;001;001;
26720;PMS1003;15950;51.112;6.966;2022-09-21T03:30:46;002;001;
26720;PMS1003;15950;51.112;6.966;2022-09-21T03:33:45;000;000;
26720;PMS1003;15950;51.112;6.966;2022-09-21T03:36:45;000;000;
26720;PMS1003;15950;51.112;6.966;2022-09-21T03:39:45;002;001;
26720;PMS1003;15950;51.112;6.966;2022-09-21T03:42:45;000;000;
26720;PMS1003;15950;51.112;6.966;2022-09-21T03:45:45;002;001;
26720;PMS1003;15950;51.112;6.966;2022-09-21T03:48:46;000;000;
26720;PMS1003;15950;51.112;6.966;2022-09-21T03:51:45;002;001;
26720;PMS1003;15950;51.112;6.966;2022-09-21T03:54:45;002;001;
26720;PMS1003;15950;51.112;6.966;2022-09-21T03:57:45;000;000;
26720;PMS1003;15950;51.112;6.966;2022-09-21T04:00:45;000;000;
26720;PMS1003;15950;51.112;6.966;2022-09-21T04:03:45;000;000;
26720;PMS1003;15950;51.112;6.966;2022-09-21T04:06:45;000;000;
26720;PMS1003;15950;51.112;6.966;2022-09-21T04:09:45;000;000;
26720;PMS1003;15950;51.112;6.966;2022-09-21T04:12:45;000;000;
26720;PMS1003;15950;51.112;6.966;2022-09-21T04:15:45;000;000;
26720;PMS1003;15950;51.112;6.966;2022-09-21T04:18:45;000;000;
26720;PMS1003;15950;51.112;6.966;2022-09-21T04:21:45;000;000;
26720;PMS1003;15950;51.112;6.966;2022-09-21T04:24:45;000;000;
26720;PMS1003;15950;51.112;6.966;2022-09-21T04:27:45;000;000;
26720;PMS1003;15950;51.112;6.966;2022-09-21T04:30:45;001;001;
26720;PMS1003;15950;51.112;6.966;2022-09-21T04:33:48;003;002;
26720;PMS1003;15950;51.112;6.966;2022-09-21T04:36:45;002;001;
26720;PMS1003;15950;51.112;6.966;2022-09-21T04:39:45;002;002;
26720;PMS1003;15950;51.112;6.966;2022-09-21T04:42:49;000;000;
26720;PMS1003;15950;51.112;6.966;2022-09-21T04:45:45;002;001;
26720;PMS1003;15950;51.112;6.966;2022-09-21T04:48:45;002;001;
26720;PMS1003;15950;51.112;6.966;2022-09-21T04:51:45;003;002;
26720;PMS1003;15950;51.112;6.966;2022-09-21T04:54:45;001;001;
26720;PMS1003;15950;51.112;6.966;2022-09-21T04:57:45;000;000;
26720;PMS1003;15950;51.112;6.966;2022-09-21T05:00:47;001;001;
26720;PMS1003;15950;51.112;6.966;2022-09-21T05:03:45;001;001;
26720;PMS1003;15950;51.112;6.966;2022-09-21T05:06:45;005;003;
26720;PMS1003;15950;51.112;6.966;2022-09-21T05:09:45;000;000;
26720;PMS1003;15950;51.112;6.966;2022-09-21T05:12:45;007;005;
26720;PMS1003;15950;51.112;6.966;2022-09-21T05:15:45;003;002;
26720;PMS1003;15950;51.112;6.966;2022-09-21T05:18:45;003;002;
26720;PMS1003;15950;51.112;6.966;2022-09-21T05:21:45;002;001;
26720;PMS1003;15950;51.112;6.966;2022-09-21T05:24:45;007;005;
26720;PMS1003;15950;51.112;6.966;2022-09-21T05:27:45;003;002;
26720;PMS1003;15950;51.112;6.966;2022-09-21T05:30:46;005;003;
26720;PMS1003;15950;51.112;6.966;2022-09-21T05:39:45;002;001;
26720;PMS1003;15950;51.112;6.966;2022-09-21T05:42:45;003;002;
26720;PMS1003;15950;51.112;6.966;2022-09-21T05:45:46;002;001;
26720;PMS1003;15950;51.112;6.966;2022-09-21T05:48:47;006;006;
26720;PMS1003;15950;51.112;6.966;2022-09-21T05:54:49;005;004;
26720;PMS1003;15950;51.112;6.966;2022-09-21T06:03:45;000;000;
26720;PMS1003;15950;51.112;6.966;2022-09-21T06:06:45;003;002;
26720;PMS1003;15950;51.112;6.966;2022-09-21T06:09:45;000;000;
26720;PMS1003;15950;51.112;6.966;2022-09-21T06:12:45;002;001;
26720;PMS1003;15950;51.112;6.966;2022-09-21T06:15:45;000;000;
26720;PMS1003;15950;51.112;6.966;2022-09-21T06:18:45;003;002;
26720;PMS1003;15950;51.112;6.966;2022-09-21T06:21:45;003;002;
26720;PMS1003;15950;51.112;6.966;2022-09-21T06:24:45;002;001;
26720;PMS1003;15950;51.112;6.966;2022-09-21T06:27:45;003;002;
26720;PMS1003;15950;51.112;6.966;2022-09-21T06:33:45;000;000;
26720;PMS1003;15950;51.112;6.966;2022-09-21T06:36:45;004;003;
26720;PMS1003;15950;51.112;6.966;2022-09-21T06:39:45;003;002;
26720;PMS1003;15950;51.112;6.966;2022-09-21T06:42:45;003;002;
26720;PMS1003;15950;51.112;6.966;2022-09-21T06:48:45;002;002;
26720;PMS1003;15950;51.112;6.966;2022-09-21T06:51:46;003;002;
26720;PMS1003;15950;51.112;6.966;2022-09-21T06:54:45;003;002;
26720;PMS1003;15950;51.112;6.966;2022-09-21T06:57:45;002;001;
26720;PMS1003;15950;51.112;6.966;2022-09-21T07:00:45;007;005;
26720;PMS1003;15950;51.112;6.966;2022-09-21T07:03:47;003;002;
26720;PMS1003;15950;51.112;6.966;2022-09-21T07:06:45;005;004;
26720;PMS1003;15950;51.112;6.966;2022-09-21T07:09:45;006;004;
26720;PMS1003;15950;51.112;6.966;2022-09-21T07:12:45;004;004;
26720;PMS1003;15950;51.112;6.966;2022-09-21T07:15:45;005;005;
26720;PMS1003;15950;51.112;6.966;2022-09-21T07:18:45;007;005;
26720;PMS1003;15950;51.112;6.966;2022-09-21T07:21:45;006;004;
26720;PMS1003;15950;51.112;6.966;2022-09-21T07:24:45;005;003;
26720;PMS1003;15950;51.112;6.966;2022-09-21T07:27:45;007;006;
26720;PMS1003;15950;51.112;6.966;2022-09-21T07:30:45;006;004;
26720;PMS1003;15950;51.112;6.966;2022-09-21T07:33:45;006;004;
26720;PMS1003;15950;51.112;6.966;2022-09-21T07:36:45;009;006;
26720;PMS1003;15950;51.112;6.966;2022-09-21T07:39:45;007;006;
26720;PMS1003;15950;51.112;6.966;2022-09-21T07:42:45;009;006;
26720;PMS1003;15950;51.112;6.966;2022-09-21T07:48:45;006;004;
26720;PMS1003;15950;51.112;6.966;2022-09-21T07:51:45;009;007;
26720;PMS1003;15950;51.112;6.966;2022-09-21T07:54:45;007;005;
26720;PMS1003;15950;51.112;6.966;2022-09-21T07:57:45;008;007;
26720;PMS1003;15950;51.112;6.966;2022-09-21T08:00:45;010;007;
26720;PMS1003;15950;51.112;6.966;2022-09-21T08:03:47;007;005;
26720;PMS1003;15950;51.112;6.966;2022-09-21T08:06:45;006;006;
26720;PMS1003;15950;51.112;6.966;2022-09-21T08:09:45;007;005;
26720;PMS1003;15950;51.112;6.966;2022-09-21T08:12:45;007;005;
26720;PMS1003;15950;51.112;6.966;2022-09-21T08:15:45;008;007;
26720;PMS1003;15950;51.112;6.966;2022-09-21T08:18:45;006;005;
26720;PMS1003;15950;51.112;6.966;2022-09-21T08:21:47;010;008;
26720;PMS1003;15950;51.112;6.966;2022-09-21T08:24:45;006;005;
26720;PMS1003;15950;51.112;6.966;2022-09-21T08:27:45;006;006;
26720;PMS1003;15950;51.112;6.966;2022-09-21T08:30:45;005;003;
26720;PMS1003;15950;51.112;6.966;2022-09-21T08:33:45;008;007;
26720;PMS1003;15950;51.112;6.966;2022-09-21T08:36:45;004;004;
26720;PMS1003;15950;51.112;6.966;2022-09-21T08:39:45;005;003;
26720;PMS1003;15950;51.112;6.966;2022-09-21T08:42:51;003;002;
26720;PMS1003;15950;51.112;6.966;2022-09-21T08:45:45;006;005;
26720;PMS1003;15950;51.112;6.966;2022-09-21T08:48:49;005;003;
26720;PMS1003;15950;51.112;6.966;2022-09-21T08:57:45;006;004;
26720;PMS1003;15950;51.112;6.966;2022-09-21T09:00:45;006;004;
26720;PMS1003;15950;51.112;6.966;2022-09-21T09:18:49;003;002;
26720;PMS1003;15950;51.112;6.966;2022-09-21T09:21:45;002;001;
26720;PMS1003;15950;51.112;6.966;2022-09-21T09:24:48;002;001;
26720;PMS1003;15950;51.112;6.966;2022-09-21T09:27:45;000;000;
26720;PMS1003;15950;51.112;6.966;2022-09-21T09:30:45;000;000;
26720;PMS1003;15950;51.112;6.966;2022-09-21T09:33:47;000;000;
26720;PMS1003;15950;51.112;6.966;2022-09-21T09:36:45;000;000;
26720;PMS1003;15950;51.112;6.966;2022-09-21T09:39:48;000;000;
26720;PMS1003;15950;51.112;6.966;2022-09-21T09:45:50;000;000;
26720;PMS1003;15950;51.112;6.966;2022-09-21T09:48:48;000;000;
26720;PMS1003;15950;51.112;6.966;2022-09-21T09:51:45;000;000;
26720;PMS1003;15950;51.112;6.966;2022-09-21T09:54:45;000;000;
26720;PMS1003;15950;51.112;6.966;2022-09-21T09:57:45;000;000;
26720;PMS1003;15950;51.112;6.966;2022-09-21T10:00:45;000;000;
26720;PMS1003;15950;51.112;6.966;2022-09-21T10:03:45;002;001;
26720;PMS1003;15950;51.112;6.966;2022-09-21T10:06:45;000;000;
26720;PMS1003;15950;51.112;6.966;2022-09-21T10:09:45;000;000;
26720;PMS1003;15950;51.112;6.966;2022-09-21T10:12:45;000;000;
26720;PMS1003;15950;51.112;6.966;2022-09-21T10:15:48;000;000;
26720;PMS1003;15950;51.112;6.966;2022-09-21T10:21:45;000;000;
26720;PMS1003;15950;51.112;6.966;2022-09-21T10:24:45;000;000;
26720;PMS1003;15950;51.112;6.966;2022-09-21T10:27:48;000;000;
26720;PMS1003;15950;51.112;6.966;2022-09-21T10:30:45;000;000;
26720;PMS1003;15950;51.112;6.966;2022-09-21T10:33:46;000;000;
26720;PMS1003;15950;51.112;6.966;2022-09-21T10:36:48;000;000;
26720;PMS1003;15950;51.112;6.966;2022-09-21T10:39:45;000;000;
26720;PMS1003;15950;51.112;6.966;2022-09-21T10:42:45;000;000;
26720;PMS1003;15950;51.112;6.966;2022-09-21T10:45:51;000;000;
26720;PMS1003;15950;51.112;6.966;2022-09-21T10:48:45;000;000;
26720;PMS1003;15950;51.112;6.966;2022-09-21T10:51:45;000;000;
26720;PMS1003;15950;51.112;6.966;2022-09-21T10:54:46;002;001;
26720;PMS1003;15950;51.112;6.966;2022-09-21T10:57:45;000;000;
26720;PMS1003;15950;51.112;6.966;2022-09-21T11:00:45;000;000;
26720;PMS1003;15950;51.112;6.966;2022-09-21T11:06:49;002;002;
26720;PMS1003;15950;51.112;6.966;2022-09-21T11:18:50;000;000;
26720;PMS1003;15950;51.112;6.966;2022-09-21T11:27:45;000;000;
26720;PMS1003;15950;51.112;6.966;2022-09-21T11:33:52;000;000;
26720;PMS1003;15950;51.112;6.966;2022-09-21T11:39:49;000;000;
26720;PMS1003;15950;51.112;6.966;2022-09-21T11:42:54;000;000;
26720;PMS1003;15950;51.112;6.966;2022-09-21T11:45:56;000;000;
26720;PMS1003;15950;51.112;6.966;2022-09-21T12:21:46;000;000;
26720;PMS1003;15950;51.112;6.966;2022-09-21T12:27:47;000;000;
26720;PMS1003;15950;51.112;6.966;2022-09-21T12:30:46;000;000;
26720;PMS1003;15950;51.112;6.966;2022-09-21T12:33:49;000;000;
26720;PMS1003;15950;51.112;6.966;2022-09-21T12:36:46;000;000;
26720;PMS1003;15950;51.112;6.966;2022-09-21T12:39:47;000;000;
26720;PMS1003;15950;51.112;6.966;2022-09-21T12:42:47;000;000;
26720;PMS1003;15950;51.112;6.966;2022-09-21T12:45:47;000;000;
26720;PMS1003;15950;51.112;6.966;2022-09-21T12:48:45;000;000;
26720;PMS1003;15950;51.112;6.966;2022-09-21T12:51:49;000;000;
26720;PMS1003;15950;51.112;6.966;2022-09-21T13:09:45;000;000;
26720;PMS1003;15950;51.112;6.966;2022-09-21T13:12:45;000;000;
26720;PMS1003;15950;51.112;6.966;2022-09-21T13:15:45;000;000;
26720;PMS1003;15950;51.112;6.966;2022-09-21T13:18:45;000;000;
26720;PMS1003;15950;51.112;6.966;2022-09-21T13:21:45;000;000;
26720;PMS1003;15950;51.112;6.966;2022-09-21T13:24:45;000;000;
26720;PMS1003;15950;51.112;6.966;2022-09-21T13:30:49;000;000;
26720;PMS1003;15950;51.112;6.966;2022-09-21T13:36:45;000;000;
26720;PMS1003;15950;51.112;6.966;2022-09-21T13:42:47;000;000;
26720;PMS1003;15950;51.112;6.966;2022-09-21T13:45:49;000;000;
26720;PMS1003;15950;51.112;6.966;2022-09-21T13:48:45;000;000;
26720;PMS1003;15950;51.112;6.966;2022-09-21T13:57:45;000;000;
26720;PMS1003;15950;51.112;6.966;2022-09-21T14:06:46;000;000;
26720;PMS1003;15950;51.112;6.966;2022-09-21T14:12:45;000;000;
26720;PMS1003;15950;51.112;6.966;2022-09-21T14:15:45;000;000;
26720;PMS1003;15950;51.112;6.966;2022-09-21T14:18:45;000;000;
26720;PMS1003;15950;51.112;6.966;2022-09-21T14:24:45;000;000;
26720;PMS1003;15950;51.112;6.966;2022-09-21T14:27:45;000;000;
26720;PMS1003;15950;51.112;6.966;2022-09-21T14:30:48;000;000;
26720;PMS1003;15950;51.112;6.966;2022-09-21T14:36:45;000;000;
26720;PMS1003;15950;51.112;6.966;2022-09-21T14:39:45;000;000;
26720;PMS1003;15950;51.112;6.966;2022-09-21T14:42:45;000;000;
26720;PMS1003;15950;51.112;6.966;2022-09-21T14:45:49;000;000;
26720;PMS1003;15950;51.112;6.966;2022-09-21T15:00:45;000;000;
26720;PMS1003;15950;51.112;6.966;2022-09-21T15:07:09;000;000;
26720;PMS1003;15950;51.112;6.966;2022-09-21T15:09:51;000;000;
26720;PMS1003;15950;51.112;6.966;2022-09-21T15:18:45;000;000;
26720;PMS1003;15950;51.112;6.966;2022-09-21T15:21:49;000;000;
26720;PMS1003;15950;51.112;6.966;2022-09-21T15:27:45;000;000;
26720;PMS1003;15950;51.112;6.966;2022-09-21T15:30:45;000;000;
26720;PMS1003;15950;51.112;6.966;2022-09-21T15:33:45;000;000;
26720;PMS1003;15950;51.112;6.966;2022-09-21T15:36:45;000;000;
26720;PMS1003;15950;51.112;6.966;2022-09-21T15:39:44;000;000;
26720;PMS1003;15950;51.112;6.966;2022-09-21T15:48:44;000;000;
26720;PMS1003;15950;51.112;6.966;2022-09-21T15:51:45;000;000;
26720;PMS1003;15950;51.112;6.966;2022-09-21T15:54:45;000;000;
26720;PMS1003;15950;51.112;6.966;2022-09-21T15:57:44;000;000;
26720;PMS1003;15950;51.112;6.966;2022-09-21T16:00:49;000;000;
26720;PMS1003;15950;51.112;6.966;2022-09-21T16:03:44;000;000;
26720;PMS1003;15950;51.112;6.966;2022-09-21T16:06:46;000;000;
26720;PMS1003;15950;51.112;6.966;2022-09-21T16:09:45;000;000;
26720;PMS1003;15950;51.112;6.966;2022-09-21T16:12:45;000;000;
26720;PMS1003;15950;51.112;6.966;2022-09-21T16:15:54;000;000;
26720;PMS1003;15950;51.112;6.966;2022-09-21T16:18:45;000;000;
26720;PMS1003;15950;51.112;6.966;2022-09-21T16:21:44;000;000;
26720;PMS1003;15950;51.112;6.966;2022-09-21T16:24:48;000;000;
26720;PMS1003;15950;51.112;6.966;2022-09-21T16:27:49;000;000;
26720;PMS1003;15950;51.112;6.966;2022-09-21T16:36:44;000;000;
26720;PMS1003;15950;51.112;6.966;2022-09-21T16:39:45;000;000;
26720;PMS1003;15950;51.112;6.966;2022-09-21T16:42:44;000;000;
26720;PMS1003;15950;51.112;6.966;2022-09-21T16:45:44;000;000;
26720;PMS1003;15950;51.112;6.966;2022-09-21T16:48:44;000;000;
26720;PMS1003;15950;51.112;6.966;2022-09-21T16:51:45;000;000;
26720;PMS1003;15950;51.112;6.966;2022-09-21T16:54:44;000;000;
26720;PMS1003;15950;51.112;6.966;2022-09-21T16:57:45;000;000;
26720;PMS1003;15950;51.112;6.966;2022-09-21T17:00:45;000;000;
26720;PMS1003;15950;51.112;6.966;2022-09-21T17:03:45;000;000;
26720;PMS1003;15950;51.112;6.966;2022-09-21T17:06:45;000;000;
26720;PMS1003;15950;51.112;6.966;2022-09-21T17:09:49;000;000;
26720;PMS1003;15950;51.112;6.966;2022-09-21T17:12:44;000;000;
26720;PMS1003;15950;51.112;6.966;2022-09-21T17:15:45;000;000;
26720;PMS1003;15950;51.112;6.966;2022-09-21T17:18:47;000;000;
26720;PMS1003;15950;51.112;6.966;2022-09-21T17:21:45;000;000;
26720;PMS1003;15950;51.112;6.966;2022-09-21T17:24:45;000;000;
26720;PMS1003;15950;51.112;6.966;2022-09-21T17:27:44;000;000;
26720;PMS1003;15950;51.112;6.966;2022-09-21T17:30:44;000;000;
26720;PMS1003;15950;51.112;6.966;2022-09-21T17:33:45;000;000;
26720;PMS1003;15950;51.112;6.966;2022-09-21T17:36:45;000;000;
26720;PMS1003;15950;51.112;6.966;2022-09-21T17:39:44;000;000;
26720;PMS1003;15950;51.112;6.966;2022-09-21T17:42:44;000;000;
26720;PMS1003;15950;51.112;6.966;2022-09-21T17:48:45;000;000;
26720;PMS1003;15950;51.112;6.966;2022-09-21T17:51:44;000;000;
26720;PMS1003;15950;51.112;6.966;2022-09-21T17:54:45;000;000;
26720;PMS1003;15950;51.112;6.966;2022-09-21T18:03:45;000;000;
26720;PMS1003;15950;51.112;6.966;2022-09-21T18:06:44;009;006;
26720;PMS1003;15950;51.112;6.966;2022-09-21T18:09:45;016;011;
26720;PMS1003;15950;51.112;6.966;2022-09-21T18:12:48;016;011;
26720;PMS1003;15950;51.112;6.966;2022-09-21T18:18:46;007;005;
26720;PMS1003;15950;51.112;6.966;2022-09-21T18:21:44;002;001;
26720;PMS1003;15950;51.112;6.966;2022-09-21T18:24:45;002;001;
26720;PMS1003;15950;51.112;6.966;2022-09-21T18:27:44;002;001;
26720;PMS1003;15950;51.112;6.966;2022-09-21T18:30:46;002;001;
26720;PMS1003;15950;51.112;6.966;2022-09-21T18:33:48;001;001;
26720;PMS1003;15950;51.112;6.966;2022-09-21T18:42:50;000;000;
26720;PMS1003;15950;51.112;6.966;2022-09-21T18:45:46;000;000;
26720;PMS1003;15950;51.112;6.966;2022-09-21T18:51:50;000;000;
26720;PMS1003;15950;51.112;6.966;2022-09-21T18:54:44;000;000;
26720;PMS1003;15950;51.112;6.966;2022-09-21T18:57:45;000;000;
26720;PMS1003;15950;51.112;6.966;2022-09-21T19:00:45;000;000;
26720;PMS1003;15950;51.112;6.966;2022-09-21T19:03:44;000;000;
26720;PMS1003;15950;51.112;6.966;2022-09-21T19:12:51;002;002;
26720;PMS1003;15950;51.112;6.966;2022-09-21T19:18:47;002;002;
26720;PMS1003;15950;51.112;6.966;2022-09-21T19:21:56;002;002;
26720;PMS1003;15950;51.112;6.966;2022-09-21T19:25:06;003;002;
26720;PMS1003;15950;51.112;6.966;2022-09-21T19:30:45;005;003;
26720;PMS1003;15950;51.112;6.966;2022-09-21T19:33:45;004;003;
26720;PMS1003;15950;51.112;6.966;2022-09-21T19:36:45;000;000;
26720;PMS1003;15950;51.112;6.966;2022-09-21T19:39:45;000;000;
26720;PMS1003;15950;51.112;6.966;2022-09-21T19:48:47;003;002;
26720;PMS1003;15950;51.112;6.966;2022-09-21T19:51:49;000;000;
26720;PMS1003;15950;51.112;6.966;2022-09-21T19:54:44;003;002;
26720;PMS1003;15950;51.112;6.966;2022-09-21T19:57:44;004;004;
26720;PMS1003;15950;51.112;6.966;2022-09-21T20:00:46;003;003;
26720;PMS1003;15950;51.112;6.966;2022-09-21T20:03:45;003;002;
26720;PMS1003;15950;51.112;6.966;2022-09-21T20:06:46;004;003;
26720;PMS1003;15950;51.112;6.966;2022-09-21T20:09:48;003;003;
26720;PMS1003;15950;51.112;6.966;2022-09-21T20:12:48;000;000;
26720;PMS1003;15950;51.112;6.966;2022-09-21T20:18:50;000;000;
26720;PMS1003;15950;51.112;6.966;2022-09-21T20:21:45;000;000;
26720;PMS1003;15950;51.112;6.966;2022-09-21T20:27:48;005;004;
26720;PMS1003;15950;51.112;6.966;2022-09-21T20:30:44;006;005;
26720;PMS1003;15950;51.112;6.966;2022-09-21T20:33:44;006;006;
26720;PMS1003;15950;51.112;6.966;2022-09-21T20:36:44;006;005;
26720;PMS1003;15950;51.112;6.966;2022-09-21T20:39:44;004;003;
26720;PMS1003;15950;51.112;6.966;2022-09-21T20:42:45;005;004;
26720;PMS1003;15950;51.112;6.966;2022-09-21T20:45:45;007;005;
26720;PMS1003;15950;51.112;6.966;2022-09-21T20:48:45;005;003;
26720;PMS1003;15950;51.112;6.966;2022-09-21T20:51:44;003;002;
26720;PMS1003;15950;51.112;6.966;2022-09-21T20:54:44;002;001;
26720;PMS1003;15950;51.112;6.966;2022-09-21T20:57:44;003;003;
26720;PMS1003;15950;51.112;6.966;2022-09-21T21:00:44;002;002;
26720;PMS1003;15950;51.112;6.966;2022-09-21T21:03:44;003;002;
26720;PMS1003;15950;51.112;6.966;2022-09-21T21:06:44;005;003;
26720;PMS1003;15950;51.112;6.966;2022-09-21T21:09:44;000;000;
26720;PMS1003;15950;51.112;6.966;2022-09-21T21:12:44;002;001;
26720;PMS1003;15950;51.112;6.966;2022-09-21T21:15:44;002;002;
26720;PMS1003;15950;51.112;6.966;2022-09-21T21:18:44;001;001;
26720;PMS1003;15950;51.112;6.966;2022-09-21T21:21:44;006;004;
26720;PMS1003;15950;51.112;6.966;2022-09-21T21:24:44;004;003;
26720;PMS1003;15950;51.112;6.966;2022-09-21T21:27:44;004;003;
26720;PMS1003;15950;51.112;6.966;2022-09-21T21:30:50;003;002;
26720;PMS1003;15950;51.112;6.966;2022-09-21T21:33:44;002;001;
26720;PMS1003;15950;51.112;6.966;2022-09-21T21:36:44;004;003;
26720;PMS1003;15950;51.112;6.966;2022-09-21T21:39:45;005;003;
26720;PMS1003;15950;51.112;6.966;2022-09-21T21:42:44;005;003;
26720;PMS1003;15950;51.112;6.966;2022-09-21T21:45:50;003;002;
26720;PMS1003;15950;51.112;6.966;2022-09-21T21:48:44;002;001;
26720;PMS1003;15950;51.112;6.966;2022-09-21T21:51:44;005;004;
26720;PMS1003;15950;51.112;6.966;2022-09-21T21:54:44;000;000;
26720;PMS1003;15950;51.112;6.966;2022-09-21T21:57:44;002;002;
26720;PMS1003;15950;51.112;6.966;2022-09-21T22:00:44;003;002;
26720;PMS1003;15950;51.112;6.966;2022-09-21T22:03:44;002;001;
26720;PMS1003;15950;51.112;6.966;2022-09-21T22:06:44;000;000;
26720;PMS1003;15950;51.112;6.966;2022-09-21T22:09:44;000;000;
26720;PMS1003;15950;51.112;6.966;2022-09-21T22:12:44;000;000;
26720;PMS1003;15950;51.112;6.966;2022-09-21T22:15:44;000;000;
26720;PMS1003;15950;51.112;6.966;2022-09-21T22:18:44;000;000;
26720;PMS1003;15950;51.112;6.966;2022-09-21T22:21:44;001;001;
26720;PMS1003;15950;51.112;6.966;2022-09-21T22:24:44;000;000;
26720;PMS1003;15950;51.112;6.966;2022-09-21T22:27:44;000;000;
26720;PMS1003;15950;51.112;6.966;2022-09-21T22:30:47;000;000;
26720;PMS1003;15950;51.112;6.966;2022-09-21T22:33:44;000;000;
26720;PMS1003;15950;51.112;6.966;2022-09-21T22:36:44;000;000;
26720;PMS1003;15950;51.112;6.966;2022-09-21T22:39:44;000;000;
26720;PMS1003;15950;51.112;6.966;2022-09-21T22:42:44;000;000;
26720;PMS1003;15950;51.112;6.966;2022-09-21T22:45:44;000;000;
26720;PMS1003;15950;51.112;6.966;2022-09-21T22:48:44;000;000;
26720;PMS1003;15950;51.112;6.966;2022-09-21T22:51:44;000;000;
26720;PMS1003;15950;51.112;6.966;2022-09-21T22:54:44;000;000;
26720;PMS1003;15950;51.112;6.966;2022-09-21T22:57:44;000;000;
26720;PMS1003;15950;51.112;6.966;2022-09-21T23:00:44;002;001;
26720;PMS1003;15950;51.112;6.966;2022-09-21T23:03:45;000;000;
26720;PMS1003;15950;51.112;6.966;2022-09-21T23:06:44;001;001;
26720;PMS1003;15950;51.112;6.966;2022-09-21T23:09:44;000;000;
26720;PMS1003;15950;51.112;6.966;2022-09-21T23:12:45;001;001;
26720;PMS1003;15950;51.112;6.966;2022-09-21T23:15:44;000;000;
26720;PMS1003;15950;51.112;6.966;2022-09-21T23:18:45;000;000;
26720;PMS1003;15950;51.112;6.966;2022-09-21T23:21:45;000;000;
26720;PMS1003;15950;51.112;6.966;2022-09-21T23:24:44;000;000;
26720;PMS1003;15950;51.112;6.966;2022-09-21T23:27:44;001;001;
26720;PMS1003;15950;51.112;6.966;2022-09-21T23:30:44;002;001;
26720;PMS1003;15950;51.112;6.966;2022-09-21T23:33:45;000;000;
26720;PMS1003;15950;51.112;6.966;2022-09-21T23:36:44;000;000;
26720;PMS1003;15950;51.112;6.966;2022-09-21T23:39:44;002;002;
26720;PMS1003;15950;51.112;6.966;2022-09-21T23:42:44;003;002;